Allentown, PA

11:42 PM EDT on September 04, 2015 (GMT -0400)
Allentown | | Change Station
CLOSE
Current Station
Airport
Location: Allentown,
Elevation: 400 ft
Nearby Weather Stations

Elev 400 ft 40.57 °N, 75.49 °W | Updated 7 minutes ago

Partly Cloudy
Partly Cloudy
72 °F
Feels Like 72 °F
N
6
Wind Variable Wind from East

Today
High -- | Low -- °F
--% Chance of Precip.
Yesterday
High -- | Low -- °F
Precip. -- in
6:31 AM 7:29 PM
Waning Gibbous, 53% visible
Pressure 30.22 in
Visibility 10.0 miles
Clouds Scattered Clouds 6000 ft
Dew Point 64 °F
Humidity 78%
Rainfall 0.00 in
Snow Depth Not available.
UV 0 out of 12
Pollen 9.00 out of 12
Air Quality Not available.
Flu Activity Not available.
METAR KXLL 050335Z AUTO 08005KT 10SM SCT060 22/18 A3022 RMK AO2
Pressure 30.22 in
Visibility 10.0 miles
Clouds Scattered Clouds 6000 ft
Dew Point 64 °F
Humidity 78%
Rainfall 0.00 in
Snow Depth Not available.
UV 0 out of 12
Pollen 9.00 out of 12
Air Quality Not available.
Flu Activity Not available.
METAR KXLL 050335Z AUTO 08005KT 10SM SCT060 22/18 A3022 RMK AO2

10-Day Weather Forecast

×

Almanac

Astronomy

Sep. 04, 2015 Rise Set
Actual Time
Civil Twilight
Nautical Twilight
Astronomical Twilight
Moon
Length of Visible Light
Length of Day
Tomorrow will be .
, % of the Moon is Illuminated

Today's Extremes

State Highs State Lows

Community

WunderPhotos

Upload Photos

1,852,408 photos uploaded!

WunderBlogs® & News

Nearby

Air Quality

  Air Quality AQ Index Pollutant
Not available.

Snow Depth

Station Depth Elevation

Earthquake Activity

City Distance Mag. Time & Date
Minimum magnitude displayed is 2.5.

Coastal Water Temperatures

Place Temperature

Stations

Nearby Weather Stations

Station Location Temp. Windchill Dew Point Humidity Wind Precip. Elev Updated Type